createdAt,value
2022-10-11T00:00:26.254Z,100208.34
2022-10-11T00:04:29.287Z,100212.75
2022-10-11T00:08:32.608Z,100214.53
2022-10-11T00:12:36.151Z,100202.19
2022-10-11T00:16:44.414Z,100199.53
2022-10-11T00:20:47.707Z,100203.94
2022-10-11T00:24:52.695Z,100206.59
2022-10-11T00:28:55.971Z,100209.25
2022-10-11T00:33:00.764Z,100203.09
2022-10-11T00:37:04.464Z,100203.97
2022-10-11T00:41:07.792Z,100198.66
2022-10-11T00:45:59.734Z,100206.59
2022-10-11T00:50:04.898Z,100213.63
2022-10-11T00:54:12.532Z,100220.69
2022-10-11T00:58:15.929Z,100230.38
2022-10-11T01:02:20.583Z,100226.84
2022-10-11T01:06:25.334Z,100229.50
2022-10-11T01:10:29.416Z,100234.78
2022-10-11T01:15:04.363Z,100238.31
2022-10-11T01:19:24.288Z,100236.56
2022-10-11T01:24:08.838Z,100241.84
2022-10-11T01:28:26.429Z,100235.69
2022-10-11T01:32:39.679Z,100246.28
2022-10-11T01:36:49.234Z,100239.22
2022-10-11T01:40:57.613Z,100229.50
2022-10-11T01:45:01.489Z,100238.31
2022-10-11T01:49:06.282Z,100240.97
2022-10-11T01:53:25.248Z,100240.97
2022-10-11T01:57:57.326Z,100247.13
2022-10-11T02:02:14.214Z,100251.53
2022-10-11T02:06:25.507Z,100244.47
2022-10-11T02:10:35.568Z,100253.31
2022-10-11T02:14:43.153Z,100252.41
2022-10-11T02:18:51.237Z,100251.53
2022-10-11T02:23:01.761Z,100252.44
2022-10-11T02:27:06.988Z,100260.34
2022-10-11T02:31:12.253Z,100255.06
2022-10-11T02:35:16.038Z,100254.19
2022-10-11T02:39:25.953Z,100265.63
2022-10-11T02:43:36.526Z,100267.41
2022-10-11T02:47:40.438Z,100254.19
2022-10-11T02:51:43.988Z,100272.69
2022-10-11T02:55:51.797Z,100273.59
2022-10-11T02:59:55.077Z,100265.66
2022-10-11T03:03:58.276Z,100276.22
2022-10-11T03:08:01.251Z,100272.69
2022-10-11T03:12:06.124Z,100273.56
2022-10-11T03:16:09.724Z,100278.84
2022-10-11T03:20:13.193Z,100283.28
2022-10-11T03:24:16.457Z,100286.75
2022-10-11T03:28:21.068Z,100287.66
2022-10-11T03:32:24.741Z,100282.38
2022-10-11T03:36:27.857Z,100290.31
2022-10-11T03:40:31.059Z,100288.53
2022-10-11T03:44:35.504Z,100293.84
2022-10-11T03:48:38.536Z,100294.72
2022-10-11T03:52:41.791Z,100295.59
2022-10-11T03:56:44.826Z,100296.47
2022-10-11T04:00:49.499Z,100304.41
2022-10-11T04:04:52.512Z,100301.75
2022-10-11T04:08:55.783Z,100307.06
2022-10-11T04:12:58.858Z,100309.72
2022-10-11T04:17:03.450Z,100304.44
2022-10-11T04:21:07.181Z,100298.25
2022-10-11T04:25:10.941Z,100297.38
2022-10-11T04:29:14.202Z,100300.00
2022-10-11T04:33:19.016Z,100300.88
2022-10-11T04:37:22.121Z,100304.44
2022-10-11T04:41:25.289Z,100309.69
2022-10-11T04:45:28.418Z,100313.22
2022-10-11T04:49:32.811Z,100309.69
2022-10-11T04:53:35.957Z,100314.09
2022-10-11T04:57:39.093Z,100317.66
2022-10-11T05:01:42.058Z,100315.00
2022-10-11T05:05:46.315Z,100314.09
2022-10-11T05:09:49.271Z,100319.34
2022-10-11T05:13:52.174Z,100321.97
2022-10-11T05:17:55.105Z,100326.38
2022-10-11T05:21:59.348Z,100329.00
2022-10-11T05:26:02.963Z,100335.19
2022-10-11T05:30:07.497Z,100332.50
2022-10-11T05:34:11.735Z,100337.78
2022-10-11T05:38:32.693Z,100351.84
2022-10-11T05:42:36.581Z,100351.84
2022-10-11T05:46:40.527Z,100357.97
2022-10-11T05:50:43.590Z,100357.97
2022-10-11T05:54:48.032Z,100361.50
2022-10-11T05:58:51.998Z,100363.25
2022-10-11T06:02:55.139Z,100371.16
2022-10-11T06:07:00.048Z,100372.94
2022-10-11T06:11:12.583Z,100381.75
2022-10-11T06:15:15.766Z,100387.94
2022-10-11T06:19:19.053Z,100389.66
2022-10-11T06:23:22.060Z,100391.47
2022-10-11T06:27:27.098Z,100395.00
2022-10-11T06:31:30.212Z,100399.41
2022-10-11T06:35:33.634Z,100402.06
2022-10-11T06:39:36.909Z,100410.94
2022-10-11T06:43:44.484Z,100410.94
2022-10-11T06:47:47.771Z,100423.31
2022-10-11T06:51:50.829Z,100418.09
2022-10-11T06:55:54.092Z,100432.25
2022-10-11T06:59:58.465Z,100434.03
2022-10-11T07:04:03.081Z,100433.16
2022-10-11T07:08:06.597Z,100426.09
2022-10-11T07:12:10.320Z,100440.22
2022-10-11T07:16:14.850Z,100440.22
2022-10-11T07:20:18.510Z,100442.00
2022-10-11T07:24:21.732Z,100447.31
2022-10-11T07:28:25.203Z,100452.59
2022-10-11T07:32:29.745Z,100448.19
2022-10-11T07:36:32.759Z,100457.91
2022-10-11T07:40:41.871Z,100467.59
2022-10-11T07:44:45.146Z,100466.75
2022-10-11T07:48:50.246Z,100473.78
2022-10-11T07:52:53.782Z,100466.69
2022-10-11T07:56:56.832Z,100464.91
2022-10-11T08:01:15.213Z,100468.44
2022-10-11T08:05:19.867Z,100475.47
2022-10-11T08:09:22.869Z,100463.97
2022-10-11T08:13:25.950Z,100470.13
2022-10-11T08:17:30.425Z,100468.34
2022-10-11T08:21:35.094Z,100463.91
2022-10-11T08:25:39.197Z,100473.59
2022-10-11T08:29:42.313Z,100474.44
2022-10-11T08:33:45.773Z,100479.69
2022-10-11T08:37:50.249Z,100487.59
2022-10-11T08:41:56.531Z,100491.97
2022-10-11T08:46:03.162Z,100484.88
2022-10-11T08:50:08.666Z,100494.56
2022-10-11T08:54:20.839Z,100489.16
2022-10-11T08:58:34.694Z,100485.56
2022-10-11T09:03:06.788Z,100498.72
2022-10-11T09:07:19.199Z,100495.00
2022-10-11T09:11:32.424Z,100487.81
2022-10-11T09:15:46.811Z,100490.34
2022-10-11T09:20:17.590Z,100492.03
2022-10-11T09:24:31.922Z,100481.34
2022-10-11T09:28:48.591Z,100488.31
2022-10-11T09:33:01.431Z,100485.53
2022-10-11T09:37:15.429Z,100481.88
2022-10-11T09:41:24.628Z,100479.03
2022-10-11T09:45:29.575Z,100487.75
2022-10-11T09:49:36.712Z,100489.56
2022-10-11T09:53:58.220Z,100481.50
2022-10-11T09:58:01.496Z,100484.03
2022-10-11T10:02:23.767Z,100484.00
2022-10-11T10:06:28.447Z,100489.13
2022-10-11T10:10:35.739Z,100488.03
2022-10-11T10:14:39.388Z,100483.56
2022-10-11T10:18:51.663Z,100491.47
2022-10-11T10:22:55.042Z,100492.13
2022-10-11T10:27:21.503Z,100486.59
2022-10-11T10:31:26.831Z,100480.09
2022-10-11T10:35:36.115Z,100485.25
2022-10-11T10:39:43.212Z,100481.50
2022-10-11T10:43:53.620Z,100482.19
2022-10-11T10:48:16.920Z,100467.81
2022-10-11T10:52:42.672Z,100473.81
2022-10-11T10:56:52.135Z,100475.50
2022-10-11T11:01:00.538Z,100477.94
2022-10-11T11:05:14.586Z,100472.59
2022-10-11T11:09:35.612Z,100474.28
2022-10-11T11:13:46.397Z,100472.44
2022-10-11T11:18:03.142Z,100461.66
2022-10-11T11:22:17.134Z,100468.66
2022-10-11T11:26:27.346Z,100466.63
2022-10-11T11:30:42.920Z,100463.06
2022-10-11T11:34:50.272Z,100466.69
2022-10-11T11:38:58.632Z,100466.72
2022-10-11T11:43:08.568Z,100463.19
2022-10-11T11:47:17.969Z,100463.94
2022-10-11T11:51:30.728Z,100468.47
2022-10-11T11:55:43.405Z,100456.22
2022-10-11T11:59:56.911Z,100450.94
2022-10-11T12:04:06.145Z,100448.25
2022-10-11T12:08:26.916Z,100448.94
2022-10-11T12:12:34.044Z,100455.69
2022-10-11T12:17:22.339Z,100448.59
2022-10-11T12:21:32.707Z,100444.88
2022-10-11T12:25:39.744Z,100443.84
2022-10-11T12:29:50.020Z,100442.06
2022-10-11T12:34:16.792Z,100435.88
2022-10-11T12:38:23.779Z,100442.84
2022-10-11T12:42:32.232Z,100432.97
2022-10-11T12:46:58.390Z,100432.78
2022-10-11T12:51:21.411Z,100435.31
2022-10-11T12:55:38.756Z,100422.00
2022-10-11T12:59:45.949Z,100431.88
2022-10-11T13:04:06.430Z,100418.44
2022-10-11T13:08:14.923Z,100429.97
2022-10-11T13:12:20.996Z,100432.44
2022-10-11T13:16:26.817Z,100428.00
2022-10-11T13:20:33.355Z,100429.00
2022-10-11T13:24:40.792Z,100421.84
2022-10-11T13:28:44.408Z,100419.28
2022-10-11T13:32:48.136Z,100426.47
2022-10-11T13:36:56.415Z,100426.53
2022-10-11T13:41:04.503Z,100420.34
2022-10-11T13:45:13.268Z,100421.34
2022-10-11T13:49:28.692Z,100429.41
2022-10-11T13:53:31.934Z,100423.19
2022-10-11T13:57:40.255Z,100420.59
2022-10-11T14:01:46.383Z,100431.22
2022-10-11T14:05:56.694Z,100420.50
2022-10-11T14:10:00.186Z,100430.22
2022-10-11T14:14:36.470Z,100428.44
2022-10-11T14:18:47.056Z,100426.63
2022-10-11T14:22:52.271Z,100425.66
2022-10-11T14:26:57.652Z,100421.06
2022-10-11T14:31:00.689Z,100424.53
2022-10-11T14:35:07.413Z,100431.75
2022-10-11T14:39:18.330Z,100433.56
2022-10-11T14:43:21.876Z,100441.59
2022-10-11T14:47:25.295Z,100436.31
2022-10-11T14:51:35.620Z,100435.38
2022-10-11T14:55:40.989Z,100444.41
2022-10-11T14:59:44.020Z,100441.78
2022-10-11T15:03:47.121Z,100441.88
2022-10-11T15:07:53.119Z,100441.00
2022-10-11T15:11:59.662Z,100434.00
2022-10-11T15:16:18.396Z,100436.72
2022-10-11T15:20:30.631Z,100443.00
2022-10-11T15:24:36.134Z,100444.91
2022-10-11T15:28:49.454Z,100444.13
2022-10-11T15:32:56.069Z,100446.84
2022-10-11T15:36:59.309Z,100450.53
2022-10-11T15:41:03.775Z,100449.75
2022-10-11T15:45:07.250Z,100453.38
2022-10-11T15:49:13.388Z,100456.16
2022-10-11T15:53:18.486Z,100449.09
2022-10-11T15:57:23.104Z,100456.34
2022-10-11T16:01:26.156Z,100453.78
2022-10-11T16:05:30.403Z,100460.03
2022-10-11T16:09:33.557Z,100472.59
2022-10-11T16:13:39.105Z,100467.41
2022-10-11T16:17:42.107Z,100469.22
2022-10-11T16:21:45.071Z,100474.66
2022-10-11T16:25:56.816Z,100467.69
2022-10-11T16:30:01.712Z,100474.84
2022-10-11T16:34:04.905Z,100479.22
2022-10-11T16:38:07.904Z,100489.00
2022-10-11T16:42:11.567Z,100487.28
2022-10-11T16:46:15.949Z,100492.78
2022-10-11T16:50:19.143Z,100491.09
2022-10-11T16:54:23.188Z,100497.38
2022-10-11T16:58:26.472Z,100498.34
2022-10-11T17:02:32.566Z,100501.06
2022-10-11T17:06:36.002Z,100514.41
2022-10-11T17:10:40.318Z,100509.19
2022-10-11T17:14:44.049Z,100520.72
2022-10-11T17:18:49.395Z,100523.38
2022-10-11T17:22:52.505Z,100521.59
2022-10-11T17:26:56.097Z,100523.47
2022-10-11T17:30:59.526Z,100530.63
2022-10-11T17:35:04.465Z,100528.91
2022-10-11T17:39:09.849Z,100527.19
2022-10-11T17:43:13.242Z,100528.13
2022-10-11T17:47:16.309Z,100526.38
2022-10-11T17:51:21.098Z,100527.34
2022-10-11T17:55:24.372Z,100523.88
2022-10-11T17:59:28.768Z,100532.78
2022-10-11T18:03:31.815Z,100523.88
2022-10-11T18:07:36.463Z,100530.16
2022-10-11T18:11:39.656Z,100535.53
2022-10-11T18:15:42.651Z,100530.22
2022-10-11T18:19:46.030Z,100535.59
2022-10-11T18:23:50.464Z,100536.56
2022-10-11T18:27:53.818Z,100533.94
2022-10-11T18:31:56.950Z,100539.28
2022-10-11T18:36:01.653Z,100543.75
2022-10-11T18:40:07.329Z,100542.00
2022-10-11T18:44:15.388Z,100542.84
2022-10-11T18:48:19.237Z,100545.50
2022-10-11T18:52:22.877Z,100550.84
2022-10-11T18:56:30.795Z,100543.75
2022-10-11T19:00:42.410Z,100539.28
2022-10-11T19:04:45.527Z,100534.91
2022-10-11T19:08:51.434Z,100540.28
2022-10-11T19:12:55.844Z,100541.22
2022-10-11T19:16:59.375Z,100555.41
2022-10-11T19:21:04.037Z,100549.28
2022-10-11T19:25:08.139Z,100544.91
2022-10-11T19:29:15.357Z,100553.81
2022-10-11T19:33:18.566Z,100547.63
2022-10-11T19:37:21.604Z,100545.88
2022-10-11T19:41:27.359Z,100544.16
2022-10-11T19:45:31.812Z,100554.00
2022-10-11T19:49:34.809Z,100551.41
2022-10-11T19:53:38.051Z,100551.44
2022-10-11T19:57:41.090Z,100560.34
2022-10-11T20:01:49.622Z,100555.94
2022-10-11T20:05:55.878Z,100553.28
2022-10-11T20:09:58.918Z,100554.25
2022-10-11T20:14:02.142Z,100552.53
2022-10-11T20:18:06.736Z,100548.97
2022-10-11T20:22:09.945Z,100547.25
2022-10-11T20:26:15.849Z,100565.06
2022-10-11T20:30:19.355Z,100571.34
2022-10-11T20:34:23.848Z,100562.50
2022-10-11T20:38:27.166Z,100559.03
2022-10-11T20:42:30.539Z,100570.56
2022-10-11T20:46:35.736Z,100566.19
2022-10-11T20:50:44.449Z,100578.63
2022-10-11T20:54:47.483Z,100570.63
2022-10-11T20:58:52.234Z,100573.31
2022-10-11T21:02:55.431Z,100586.59
2022-10-11T21:06:59.839Z,100588.38
2022-10-11T21:11:03.125Z,100579.59
2022-10-11T21:15:07.356Z,100588.44
2022-10-11T21:19:14.476Z,100591.13
2022-10-11T21:23:20.033Z,100596.50
2022-10-11T21:27:24.741Z,100600.06
2022-10-11T21:31:33.582Z,100598.38
2022-10-11T21:35:40.173Z,100598.41
2022-10-11T21:39:44.513Z,100587.81
2022-10-11T21:43:48.583Z,100586.09
2022-10-11T21:47:51.628Z,100584.38
2022-10-11T21:51:54.861Z,100591.50
2022-10-11T21:55:59.697Z,100596.81
2022-10-11T22:00:03.103Z,100590.66
2022-10-11T22:04:16.254Z,100588.00
2022-10-11T22:08:19.652Z,100581.84
2022-10-11T22:12:24.213Z,100586.31
2022-10-11T22:16:27.194Z,100579.28
2022-10-11T22:20:30.640Z,100574.91
2022-10-11T22:24:33.846Z,100578.44
2022-10-11T22:28:38.535Z,100574.06
2022-10-11T22:32:42.022Z,100566.09
2022-10-11T22:36:45.229Z,100568.81
2022-10-11T22:40:48.462Z,100567.09
2022-10-11T22:44:52.826Z,100566.22
2022-10-11T22:48:55.783Z,100567.97
2022-10-11T22:52:58.763Z,100560.00
2022-10-11T22:57:01.815Z,100572.41
2022-10-11T23:01:10.418Z,100562.72
2022-10-11T23:05:13.559Z,100568.94
2022-10-11T23:09:16.541Z,100580.44
2022-10-11T23:13:19.557Z,100581.31
2022-10-11T23:17:24.127Z,100581.31
2022-10-11T23:21:27.546Z,100581.31
2022-10-11T23:25:30.750Z,100582.19
2022-10-11T23:29:34.171Z,100583.97
2022-10-11T23:33:39.427Z,100586.63
2022-10-11T23:37:42.425Z,100594.59
2022-10-11T23:41:45.493Z,100601.69
2022-10-11T23:45:48.527Z,100609.66
2022-10-11T23:49:53.126Z,100612.31
2022-10-11T23:53:56.327Z,100615.00
2022-10-11T23:57:59.486Z,100625.59
